Main page
METAR-TAF:

METAR-TAF

Airports :

Oil platform

Troll C, Norway

latitude: 60-53-09N, longitude: 3-36-35E, elevation: 20 m

Current weather observation

The report was made 26 minutes ago, at 23:20 UTC
Wind 18 kt from the South
Temperature 9°C
Humidity 93%
Pressure 995 hPa
Visibility: 4900 m

METAR: ENQC 252320Z AUTO 17018KT 4900NDV /// 09/08 Q0995 W///S3

Time: 01:46 (23:46 UTC)


TAF: missing

Weather observations and forecasts of more than 4000 airports (METAR and TAF reports).

The available stations are represented by yellow and red dots on the map.

Hover mouse over dot to see the name of the station.

Then click to see weather observations and forecasts.

To change the map : click on the green buttons with a black cross to zoom in, on the green button with a dash to zoom out, or on the green arrows for adjacent maps.


METAR-TAF: